Terminal Aerodrome Forecast
Issued by NWS

Home | Current Version | Previous Version | Text Only | Print | Product List | Glossary On
Versions: 1 2 3 4 5 6 7 8 9 10 11 12 13 14 15 16 17 18
488
FTUS43 KGRB 290520
TAFAUW
TAF
KAUW 290520Z 2906/3006 19009KT 5SM BR SCT008 WS020/25035KT
      TEMPO 2906/2910 2SM BR BKN008
     FM291000 24010G15KT 4SM BR BKN012
     FM291500 27012G18KT P6SM BKN025
     FM300000 28010KT P6SM BKN040=

USA.gov is the U.S. government's official web portal to all federal, state and local government web resources and services.